Time;durP1;ratioP1;P1;durP2;ratioP2;P2;SDS_P1;SDS_P2;PMS_P1;PMS_P2;Temp;Humidity;BMP_temperature;BMP_pressure;BME280_temperature;BME280_humidity;BME280_pressure;Samples;Min_cycle;Max_cycle;Signal;HPM_P1;HPM_P2
2023/04/14 00:00:45;;;;;;;5.97;5.37;;;6.40;99.90;;;;;;5024409;28;20537;-64
2023/04/14 00:03:15;;;;;;;7.07;6.37;;;6.40;99.90;;;;;;5020652;28;20491;-64
2023/04/14 00:05:43;;;;;;;6.10;5.50;;;6.40;99.90;;;;;;5016759;28;21414;-64
2023/04/14 00:08:11;;;;;;;6.40;5.80;;;6.40;99.90;;;;;;5023856;28;20513;-62
2023/04/14 00:10:39;;;;;;;7.27;6.30;;;6.30;99.90;;;;;;5021842;28;20495;-64
2023/04/14 00:13:07;;;;;;;6.17;5.67;;;6.30;99.90;;;;;;5014876;28;20478;-63
2023/04/14 00:15:35;;;;;;;6.87;6.23;;;6.30;99.90;;;;;;5023943;28;20840;-64
2023/04/14 00:18:03;;;;;;;6.10;5.50;;;6.30;99.90;;;;;;5021514;28;20479;-63
2023/04/14 00:20:32;;;;;;;6.40;5.80;;;6.30;99.90;;;;;;5023313;28;20506;-64
2023/04/14 00:23:00;;;;;;;6.53;5.93;;;6.30;99.90;;;;;;5021377;28;20871;-64
2023/04/14 00:25:28;;;;;;;6.87;6.27;;;6.20;99.90;;;;;;5016855;28;20979;-64
2023/04/14 00:27:56;;;;;;;7.53;6.87;;;6.20;99.90;;;;;;5019038;28;20479;-64
2023/04/14 00:30:24;;;;;;;6.93;6.27;;;6.10;99.90;;;;;;5015091;28;20849;-62
2023/04/14 00:32:52;;;;;;;7.73;6.80;;;6.10;99.90;;;;;;5015127;28;20470;-64
2023/04/14 00:35:20;;;;;;;6.27;5.67;;;6.00;99.90;;;;;;5017838;28;20495;-64
2023/04/14 00:37:50;;;;;;;7.17;6.53;;;6.00;99.90;;;;;;5023213;28;20479;-66
2023/04/14 00:40:18;;;;;;;6.50;5.90;;;6.00;99.90;;;;;;5029428;28;20502;-64
2023/04/14 00:42:47;;;;;;;6.50;5.90;;;6.00;99.90;;;;;;5025666;28;20487;-64
2023/04/14 00:45:15;;;;;;;6.67;6.13;;;5.90;99.90;;;;;;5023889;28;20478;-64
2023/04/14 00:47:46;;;;;;;5.70;5.27;;;5.90;99.90;;;;;;5025530;28;21003;-64
2023/04/14 00:50:16;;;;;;;6.20;5.70;;;5.90;99.90;;;;;;5023256;28;20565;-63
2023/04/14 00:52:47;;;;;;;6.63;5.90;;;5.90;99.90;;;;;;5021108;28;20494;-64
2023/04/14 00:55:18;;;;;;;7.10;6.40;;;5.80;99.90;;;;;;5018333;28;20955;-64
2023/04/14 00:57:47;;;;;;;6.10;5.50;;;5.80;99.90;;;;;;5025397;28;20574;-64
2023/04/14 01:00:15;;;;;;;6.33;5.83;;;5.80;99.90;;;;;;5027888;28;20503;-64
2023/04/14 01:02:43;;;;;;;5.80;5.30;;;5.70;99.90;;;;;;5029871;28;20537;-64
2023/04/14 01:05:11;;;;;;;6.53;6.03;;;5.70;99.90;;;;;;5031406;28;20475;-66
2023/04/14 01:07:41;;;;;;;6.17;5.67;;;5.70;99.90;;;;;;5026016;28;20544;-64
2023/04/14 01:10:09;;;;;;;6.40;5.90;;;5.70;99.90;;;;;;5017699;28;21046;-64
2023/04/14 01:13:15;;;;;;;6.47;5.87;;;5.60;99.90;;;;;;5021465;28;20826;-64
2023/04/14 01:15:49;;;;;;;6.50;5.90;;;5.60;99.90;;;;;;5021575;28;20467;-64
2023/04/14 01:18:26;;;;;;;6.70;6.00;;;5.60;99.90;;;;;;5041276;28;20513;-63
2023/04/14 01:20:59;;;;;;;7.30;6.60;;;5.50;99.90;;;;;;5046860;28;20500;-64
2023/04/14 01:23:33;;;;;;;7.67;6.97;;;5.50;99.90;;;;;;5040323;28;20499;-64
2023/04/14 01:26:17;;;;;;;7.30;6.60;;;5.50;99.90;;;;;;5026122;28;20522;-64
2023/04/14 01:29:32;;;;;;;7.10;6.50;;;5.50;99.90;;;;;;5021305;28;20860;-64
2023/04/14 01:32:04;;;;;;;7.20;6.60;;;5.40;99.90;;;;;;5010826;28;20477;-64
2023/04/14 01:34:38;;;;;;;7.27;6.57;;;5.40;99.90;;;;;;5015285;28;20472;-64
2023/04/14 01:37:09;;;;;;;7.77;6.97;;;5.40;99.90;;;;;;5020214;28;20471;-64
2023/04/14 01:39:41;;;;;;;6.70;6.10;;;5.40;99.90;;;;;;5018598;28;20513;-64
2023/04/14 01:42:14;;;;;;;7.70;6.67;;;5.30;99.90;;;;;;5019214;28;20494;-64
2023/04/14 01:44:44;;;;;;;7.43;6.73;;;5.30;99.90;;;;;;5015406;28;21121;-64
2023/04/14 01:47:17;;;;;;;7.30;6.60;;;5.30;99.90;;;;;;5020009;28;20480;-63
2023/04/14 01:49:47;;;;;;;8.60;7.03;;;5.30;99.90;;;;;;5012949;28;20498;-63
2023/04/14 01:52:17;;;;;;;7.63;6.93;;;5.20;99.90;;;;;;5024536;28;21153;-65
2023/04/14 01:54:47;;;;;;;7.50;6.80;;;5.20;99.90;;;;;;5008493;28;20472;-65
2023/04/14 01:57:19;;;;;;;7.57;6.87;;;5.20;99.90;;;;;;5018774;28;20482;-65
2023/04/14 01:59:48;;;;;;;8.30;7.50;;;5.10;99.90;;;;;;5020663;28;21015;-64
2023/04/14 02:02:21;;;;;;;8.37;7.57;;;5.10;99.90;;;;;;5022426;28;20471;-64
2023/04/14 02:04:49;;;;;;;7.50;6.70;;;5.10;99.90;;;;;;5020676;28;20471;-64
2023/04/14 02:07:21;;;;;;;7.10;6.40;;;5.10;99.90;;;;;;5026215;28;20471;-65
2023/04/14 02:09:50;;;;;;;7.30;6.60;;;5.10;99.90;;;;;;5018225;28;20507;-65
2023/04/14 02:12:19;;;;;;;7.30;6.27;;;5.00;99.90;;;;;;5018920;28;20474;-64
2023/04/14 02:14:49;;;;;;;7.60;6.90;;;5.00;99.90;;;;;;5017556;28;20464;-64
2023/04/14 02:17:20;;;;;;;8.03;7.20;;;5.00;99.90;;;;;;5023926;28;20510;-64
2023/04/14 02:19:49;;;;;;;7.00;6.40;;;5.00;99.90;;;;;;5016943;28;20576;-63
2023/04/14 02:22:17;;;;;;;7.57;6.87;;;5.00;99.90;;;;;;5019041;28;20482;-64
2023/04/14 02:24:46;;;;;;;7.20;6.60;;;4.90;99.90;;;;;;5015676;28;21024;-64
2023/04/14 02:27:18;;;;;;;8.03;7.20;;;4.90;99.90;;;;;;5011233;28;20850;-65
2023/04/14 02:29:52;;;;;;;7.50;6.80;;;4.90;99.90;;;;;;5007948;28;20498;-64
2023/04/14 02:32:24;;;;;;;7.53;6.73;;;4.80;99.90;;;;;;5012952;28;20471;-64
2023/04/14 02:35:00;;;;;;;7.63;6.93;;;4.80;99.90;;;;;;5013199;28;20474;-64
2023/04/14 02:37:34;;;;;;;7.73;7.03;;;4.80;99.90;;;;;;5011762;28;20474;-64
2023/04/14 02:40:11;;;;;;;8.33;7.50;;;4.80;99.90;;;;;;5026350;28;20526;-64
2023/04/14 02:42:43;;;;;;;7.87;7.17;;;4.70;99.90;;;;;;5017501;28;21722;-64
2023/04/14 02:45:15;;;;;;;7.40;6.70;;;4.70;99.90;;;;;;5019182;28;21120;-63
2023/04/14 02:47:49;;;;;;;7.20;6.50;;;4.70;99.90;;;;;;5022380;28;20894;-65
2023/04/14 02:50:19;;;;;;;7.57;6.97;;;4.70;99.90;;;;;;5013053;28;21019;-65
2023/04/14 02:52:50;;;;;;;6.93;6.33;;;4.70;99.90;;;;;;5017758;28;20472;-64
2023/04/14 02:55:19;;;;;;;7.70;7.00;;;4.70;99.90;;;;;;5014322;28;20471;-65
2023/04/14 02:57:48;;;;;;;8.53;7.30;;;4.70;99.90;;;;;;5025941;28;20475;-65
2023/04/14 03:00:17;;;;;;;8.30;7.47;;;4.70;99.90;;;;;;5015596;28;20506;-65
2023/04/14 03:02:48;;;;;;;7.33;6.70;;;4.60;99.90;;;;;;5019627;28;21163;-63
2023/04/14 03:05:16;;;;;;;7.97;7.20;;;4.60;99.90;;;;;;5020618;28;20464;-64
2023/04/14 03:07:46;;;;;;;8.00;7.30;;;4.60;99.90;;;;;;5019046;28;20753;-64
2023/04/14 03:10:14;;;;;;;7.83;7.10;;;4.60;99.90;;;;;;5020538;28;20487;-65
2023/04/14 03:12:44;;;;;;;9.70;8.70;;;4.50;99.90;;;;;;5021475;28;20482;-64
2023/04/14 03:15:12;;;;;;;8.30;7.50;;;4.50;99.90;;;;;;5013957;28;20843;-63
2023/04/14 03:17:41;;;;;;;7.70;7.00;;;4.50;99.90;;;;;;5019005;28;20479;-65
2023/04/14 03:20:13;;;;;;;8.50;7.70;;;4.50;99.90;;;;;;5018001;28;20495;-64
2023/04/14 03:22:43;;;;;;;7.43;6.73;;;4.50;99.90;;;;;;5017360;28;20478;-64
2023/04/14 03:25:11;;;;;;;8.73;7.60;;;4.50;99.90;;;;;;5025540;28;20491;-63
2023/04/14 03:27:41;;;;;;;7.90;7.20;;;4.50;99.90;;;;;;5021287;28;20475;-64
2023/04/14 03:30:12;;;;;;;7.97;7.27;;;4.40;99.90;;;;;;5017018;28;20510;-63
2023/04/14 03:32:42;;;;;;;7.67;6.87;;;4.40;99.90;;;;;;5011876;28;20476;-63
2023/04/14 03:35:14;;;;;;;7.60;6.87;;;4.40;99.90;;;;;;5019112;28;20478;-64
2023/04/14 03:37:45;;;;;;;7.63;6.93;;;4.40;99.90;;;;;;5020977;28;20482;-64
2023/04/14 03:40:15;;;;;;;8.70;7.40;;;4.40;99.90;;;;;;5019403;28;20499;-64
2023/04/14 03:42:45;;;;;;;7.93;7.10;;;4.30;99.90;;;;;;5022727;28;20471;-64
2023/04/14 03:45:14;;;;;;;7.90;7.20;;;4.40;99.90;;;;;;5020851;28;20491;-64
2023/04/14 03:47:42;;;;;;;8.10;7.40;;;4.30;99.90;;;;;;5009036;28;20474;-64
2023/04/14 03:50:14;;;;;;;8.70;7.40;;;4.30;99.90;;;;;;5018238;28;20894;-64
2023/04/14 03:52:46;;;;;;;8.50;7.70;;;4.30;99.90;;;;;;5015846;28;20495;-65
2023/04/14 03:55:17;;;;;;;7.83;7.03;;;4.20;99.90;;;;;;5019123;28;20475;-64
2023/04/14 03:57:47;;;;;;;8.27;7.47;;;4.20;99.90;;;;;;5023476;28;20939;-64
2023/04/14 04:00:16;;;;;;;8.70;7.90;;;4.20;99.90;;;;;;5024464;28;20487;-65
2023/04/14 04:02:45;;;;;;;8.17;7.37;;;4.10;99.90;;;;;;5019855;28;20478;-64
2023/04/14 04:05:15;;;;;;;8.47;7.57;;;4.20;99.90;;;;;;5020181;28;20487;-65
2023/04/14 04:07:44;;;;;;;8.13;7.33;;;4.10;99.90;;;;;;5019993;28;20471;-64
2023/04/14 04:10:15;;;;;;;8.10;6.93;;;4.20;99.90;;;;;;5019080;28;20498;-64
2023/04/14 04:12:45;;;;;;;8.80;8.00;;;4.20;99.90;;;;;;5013597;28;20851;-65
2023/04/14 04:15:13;;;;;;;8.67;7.70;;;4.10;99.90;;;;;;5016322;28;20475;-64
2023/04/14 04:17:43;;;;;;;7.43;6.73;;;4.10;99.90;;;;;;5023896;28;20844;-64
2023/04/14 04:20:15;;;;;;;8.33;7.53;;;4.10;99.90;;;;;;5023619;28;20499;-63
2023/04/14 04:22:45;;;;;;;8.87;7.10;;;4.10;99.90;;;;;;5015329;28;20901;-65
2023/04/14 04:25:14;;;;;;;8.00;7.20;;;4.10;99.90;;;;;;5014947;28;20495;-65
2023/04/14 04:27:42;;;;;;;8.13;7.33;;;4.10;99.90;;;;;;5012710;28;20471;-64
2023/04/14 04:30:13;;;;;;;7.87;7.17;;;4.10;99.90;;;;;;5006144;28;21020;-65
2023/04/14 04:32:41;;;;;;;7.50;6.80;;;4.10;99.90;;;;;;5014557;28;20988;-65
2023/04/14 04:35:10;;;;;;;8.83;7.33;;;4.10;99.90;;;;;;5005396;28;20502;-65
2023/04/14 04:37:41;;;;;;;8.93;8.13;;;4.10;99.90;;;;;;5006346;28;20515;-68
2023/04/14 04:40:10;;;;;;;9.27;8.27;;;4.10;99.90;;;;;;5008924;28;20518;-63
2023/04/14 04:42:41;;;;;;;8.20;7.47;;;4.00;99.90;;;;;;5008217;28;20931;-64
2023/04/14 04:45:10;;;;;;;8.67;7.77;;;4.00;99.90;;;;;;5008410;28;20486;-65
2023/04/14 04:47:38;;;;;;;9.00;7.40;;;4.00;99.90;;;;;;5018908;28;20826;-65
2023/04/14 04:50:07;;;;;;;7.60;6.87;;;4.00;99.90;;;;;;5019128;28;21028;-65
2023/04/14 04:52:35;;;;;;;8.90;8.10;;;4.00;99.90;;;;;;5008937;28;20471;-64
2023/04/14 04:55:05;;;;;;;8.27;7.00;;;4.00;99.90;;;;;;5012970;28;20476;-66
2023/04/14 04:57:33;;;;;;;8.30;7.50;;;4.00;99.90;;;;;;5014608;28;21307;-64
2023/04/14 05:00:01;;;;;;;7.97;7.20;;;4.00;99.90;;;;;;5018088;28;20494;-63
2023/04/14 05:02:29;;;;;;;8.57;7.77;;;4.00;99.90;;;;;;5009545;28;21045;-65
2023/04/14 05:04:57;;;;;;;8.17;7.30;;;4.00;99.90;;;;;;5012232;28;20720;-64
2023/04/14 05:07:25;;;;;;;7.97;7.27;;;4.00;99.90;;;;;;5020589;28;20475;-63
2023/04/14 05:09:53;;;;;;;8.47;7.67;;;4.00;99.90;;;;;;4996443;28;21105;-66
2023/04/14 05:12:23;;;;;;;7.30;6.60;;;4.00;99.90;;;;;;5000710;28;20475;-63
2023/04/14 05:14:51;;;;;;;8.70;7.10;;;4.00;99.90;;;;;;5027493;28;20613;-64
2023/04/14 05:17:18;;;;;;;8.20;7.40;;;4.00;99.90;;;;;;5012876;28;20568;-65
2023/04/14 05:19:46;;;;;;;8.57;7.67;;;4.00;99.90;;;;;;5018063;28;20494;-65
2023/04/14 05:22:14;;;;;;;8.70;7.80;;;4.00;99.90;;;;;;5019795;28;20984;-64
2023/04/14 05:24:48;;;;;;;7.73;7.00;;;4.10;99.90;;;;;;5020056;28;20498;-64
2023/04/14 05:27:16;;;;;;;8.60;7.70;;;4.10;99.90;;;;;;5020702;28;20483;-67
2023/04/14 05:29:46;;;;;;;10.20;8.40;;;4.20;99.90;;;;;;5017631;28;20496;-65
2023/04/14 05:32:14;;;;;;;8.33;7.50;;;4.20;99.90;;;;;;5020387;28;20980;-66
2023/04/14 05:34:42;;;;;;;8.37;7.30;;;4.20;99.90;;;;;;5014751;28;20475;-65
2023/04/14 05:37:10;;;;;;;8.40;7.63;;;4.30;99.90;;;;;;5009712;28;20479;-65
2023/04/14 05:39:38;;;;;;;7.87;7.17;;;4.30;99.90;;;;;;5017619;28;20495;-64
2023/04/14 05:42:06;;;;;;;9.00;8.10;;;4.30;99.90;;;;;;5010795;28;20471;-66
2023/04/14 05:44:34;;;;;;;10.30;8.07;;;4.40;99.90;;;;;;5017069;28;20837;-65
2023/04/14 05:47:03;;;;;;;8.80;7.60;;;4.50;99.90;;;;;;5026121;28;20478;-64
2023/04/14 05:49:31;;;;;;;9.20;8.30;;;4.50;99.90;;;;;;5027666;28;20491;-65
2023/04/14 05:52:00;;;;;;;9.30;8.33;;;4.60;99.90;;;;;;5024768;28;20860;-65
2023/04/14 05:54:28;;;;;;;8.90;8.00;;;4.60;99.90;;;;;;5025869;28;20472;-65
2023/04/14 05:56:56;;;;;;;8.33;7.53;;;4.70;99.90;;;;;;5026644;28;20487;-65
2023/04/14 05:59:24;;;;;;;8.50;7.67;;;4.70;99.90;;;;;;5019813;28;20879;-65
2023/04/14 06:01:52;;;;;;;8.40;7.60;;;4.80;99.90;;;;;;5024113;28;20472;-65
2023/04/14 06:04:21;;;;;;;8.00;7.30;;;4.80;99.90;;;;;;5028895;28;20499;-65
2023/04/14 06:06:50;;;;;;;9.27;8.27;;;4.80;99.90;;;;;;5025503;28;20530;-65
2023/04/14 06:09:18;;;;;;;8.60;7.80;;;4.90;99.90;;;;;;5025188;28;20491;-65
2023/04/14 06:11:45;;;;;;;9.53;8.63;;;4.90;99.90;;;;;;5027619;28;20479;-64
2023/04/14 06:14:13;;;;;;;8.73;7.83;;;5.00;99.90;;;;;;5024030;28;20464;-63
2023/04/14 06:16:41;;;;;;;10.60;9.60;;;5.00;99.90;;;;;;5034895;28;20455;-65
2023/04/14 06:19:10;;;;;;;9.10;8.30;;;5.00;99.90;;;;;;5024051;28;20956;-66
2023/04/14 06:21:39;;;;;;;10.73;9.30;;;5.10;99.90;;;;;;5028702;28;20498;-66
2023/04/14 06:24:07;;;;;;;11.07;9.80;;;5.10;99.90;;;;;;5033683;28;20471;-65
2023/04/14 06:26:36;;;;;;;10.80;9.70;;;5.20;99.90;;;;;;5041538;28;20491;-65
2023/04/14 06:29:06;;;;;;;11.07;9.80;;;5.20;99.90;;;;;;5041977;28;20483;-65
2023/04/14 06:31:34;;;;;;;10.73;9.73;;;5.30;99.90;;;;;;5042663;28;20492;-63
2023/04/14 06:34:02;;;;;;;10.73;9.50;;;5.40;99.90;;;;;;5028266;28;20525;-65
2023/04/14 06:36:30;;;;;;;11.20;10.00;;;5.40;99.90;;;;;;5025711;28;20994;-65
2023/04/14 06:39:00;;;;;;;10.33;9.33;;;5.40;99.90;;;;;;5022591;28;20475;-65
2023/04/14 06:41:28;;;;;;;10.73;9.27;;;5.50;99.90;;;;;;5021998;28;21447;-65
2023/04/14 06:43:56;;;;;;;10.80;9.70;;;5.60;99.90;;;;;;5023320;28;20476;-65
2023/04/14 06:46:24;;;;;;;10.50;9.50;;;5.60;99.90;;;;;;5032499;28;20491;-65
2023/04/14 06:48:52;;;;;;;10.97;9.97;;;5.70;99.90;;;;;;5037540;28;20486;-64
2023/04/14 06:51:20;;;;;;;10.73;9.73;;;5.70;99.90;;;;;;5033232;28;20490;-65
2023/04/14 06:53:48;;;;;;;11.33;9.57;;;5.80;99.90;;;;;;5021308;28;20467;-64
2023/04/14 06:56:18;;;;;;;11.03;10.03;;;5.90;99.90;;;;;;5017064;28;20527;-65
2023/04/14 06:58:46;;;;;;;10.60;9.60;;;5.90;99.90;;;;;;5021960;28;20988;-65
2023/04/14 07:01:14;;;;;;;10.30;9.30;;;6.00;99.90;;;;;;5027410;28;20491;-65
2023/04/14 07:03:44;;;;;;;10.63;9.63;;;6.00;99.90;;;;;;5028400;28;20915;-65
2023/04/14 07:06:15;;;;;;;9.70;8.90;;;6.10;99.90;;;;;;5029420;28;20492;-65
2023/04/14 07:08:45;;;;;;;13.20;9.47;;;6.10;99.90;;;;;;5024398;28;20517;-66
2023/04/14 07:11:13;;;;;;;10.03;9.13;;;6.20;99.90;;;;;;5018954;28;20491;-65
2023/04/14 07:13:42;;;;;;;11.10;10.07;;;6.30;99.90;;;;;;5013135;28;20483;-66
2023/04/14 07:16:10;;;;;;;9.80;8.80;;;6.30;99.90;;;;;;5024653;28;20468;-65
2023/04/14 07:18:38;;;;;;;8.70;7.90;;;6.40;99.90;;;;;;5026328;28;21028;-64
2023/04/14 07:21:06;;;;;;;9.10;7.70;;;6.50;99.90;;;;;;5029247;28;20498;-64
2023/04/14 07:23:34;;;;;;;7.93;7.23;;;6.60;99.90;;;;;;5023802;28;20472;-63
2023/04/14 07:26:02;;;;;;;7.30;6.67;;;6.70;99.90;;;;;;5024411;28;20503;-65
2023/04/14 07:28:31;;;;;;;8.73;7.70;;;6.70;99.90;;;;;;5027185;28;20486;-65
2023/04/14 07:31:07;;;;;;;9.60;7.90;;;6.80;99.90;;;;;;5027148;28;20495;-65
2023/04/14 07:33:35;;;;;;;8.60;7.57;;;6.90;99.90;;;;;;5023113;28;20475;-65
2023/04/14 07:36:05;;;;;;;8.10;7.30;;;7.00;99.90;;;;;;5023721;28;20469;-65
2023/04/14 07:38:34;;;;;;;9.60;8.23;;;7.00;99.90;;;;;;5021377;28;21075;-66
2023/04/14 07:41:04;;;;;;;8.90;7.97;;;7.10;99.90;;;;;;5024822;28;21353;-65
2023/04/14 07:43:34;;;;;;;7.80;7.00;;;7.20;99.90;;;;;;5022698;28;20501;-65
2023/04/14 07:46:05;;;;;;;7.83;7.13;;;7.30;99.90;;;;;;5024963;28;20494;-66
2023/04/14 07:48:34;;;;;;;7.80;7.00;;;7.30;99.90;;;;;;5018160;28;20491;-65
2023/04/14 07:51:03;;;;;;;9.43;7.40;;;7.40;99.90;;;;;;5019979;28;20499;-65
2023/04/14 07:53:31;;;;;;;7.70;7.00;;;7.50;99.90;;;;;;5022039;28;20483;-64
2023/04/14 07:55:59;;;;;;;8.37;7.37;;;7.60;99.90;;;;;;5021704;28;20467;-66
2023/04/14 07:58:28;;;;;;;9.97;7.00;;;7.70;99.90;;;;;;5025320;28;21017;-64
2023/04/14 08:00:57;;;;;;;8.83;7.87;;;7.80;99.90;;;;;;5021338;28;20506;-65
2023/04/14 08:03:26;;;;;;;7.73;6.87;;;7.80;99.90;;;;;;5025739;28;20976;-64
2023/04/14 08:05:56;;;;;;;8.60;7.00;;;7.90;99.90;;;;;;5025550;28;20523;-67
2023/04/14 08:08:24;;;;;;;9.53;6.80;;;8.00;99.90;;;;;;5024874;28;20571;-65
2023/04/14 08:10:53;;;;;;;7.70;6.97;;;8.10;99.90;;;;;;5021481;28;20514;-65
2023/04/14 08:13:21;;;;;;;9.13;7.13;;;8.20;99.90;;;;;;5027589;28;20471;-64
2023/04/14 08:15:49;;;;;;;8.57;6.97;;;8.30;99.90;;;;;;5022990;28;20474;-66
2023/04/14 08:18:17;;;;;;;8.03;5.60;;;8.40;99.90;;;;;;5024104;28;20894;-65
2023/04/14 08:20:47;;;;;;;5.83;4.90;;;8.40;99.90;;;;;;5026088;28;20561;-65
2023/04/14 08:23:15;;;;;;;6.97;5.10;;;8.50;99.90;;;;;;5022227;28;20495;-65
2023/04/14 08:25:44;;;;;;;5.43;4.10;;;8.70;99.90;;;;;;5021055;28;20475;-62
2023/04/14 08:28:12;;;;;;;6.70;4.23;;;8.80;99.90;;;;;;5023976;28;20499;-64
2023/04/14 08:30:40;;;;;;;5.57;4.00;;;8.90;99.90;;;;;;5031063;28;20499;-65
2023/04/14 08:33:08;;;;;;;5.50;4.20;;;9.00;99.90;;;;;;5030405;28;20963;-65
2023/04/14 08:35:36;;;;;;;5.87;3.67;;;9.10;99.90;;;;;;5032111;28;20543;-65
2023/04/14 08:38:11;;;;;;;3.23;2.90;;;9.20;99.90;;;;;;5022804;28;20487;-63
2023/04/14 08:40:41;;;;;;;5.37;3.40;;;9.30;99.90;;;;;;5029693;28;20503;-64
2023/04/14 08:43:09;;;;;;;5.10;3.30;;;9.50;99.90;;;;;;5030621;28;20467;-65
2023/04/14 08:45:43;;;;;;;7.80;3.20;;;9.50;99.90;;;;;;5027468;28;20475;-64
2023/04/14 08:48:14;;;;;;;7.23;3.30;;;9.60;99.90;;;;;;5028097;28;20491;-64
2023/04/14 08:50:49;;;;;;;3.60;2.80;;;9.70;99.90;;;;;;5029260;28;20504;-64
2023/04/14 08:53:21;;;;;;;3.77;2.37;;;9.80;99.90;;;;;;5026604;28;20584;-64
2023/04/14 08:55:50;;;;;;;3.10;2.77;;;9.90;99.90;;;;;;5025950;28;20471;-65
2023/04/14 08:58:18;;;;;;;3.03;2.70;;;10.00;99.90;;;;;;5022635;28;20483;-62
2023/04/14 09:00:47;;;;;;;5.93;3.33;;;10.00;99.90;;;;;;5025260;28;21015;-65
2023/04/14 09:03:16;;;;;;;4.97;2.70;;;10.10;99.90;;;;;;5026279;28;20475;-64
2023/04/14 09:05:45;;;;;;;3.10;2.80;;;10.20;99.90;;;;;;5029173;28;20550;-64
2023/04/14 09:08:13;;;;;;;3.40;2.53;;;10.30;99.90;;;;;;5024574;28;20491;-64
2023/04/14 09:10:44;;;;;;;4.03;2.57;;;10.40;99.90;;;;;;5020034;28;20490;-63
2023/04/14 09:13:14;;;;;;;4.37;2.80;;;10.50;99.90;;;;;;5028620;28;20472;-64
2023/04/14 09:15:42;;;;;;;5.90;2.60;;;10.60;99.90;;;;;;5027385;28;20473;-66
2023/04/14 09:18:11;;;;;;;3.77;2.20;;;10.60;99.90;;;;;;5026421;28;20721;-64
2023/04/14 09:20:39;;;;;;;2.10;1.90;;;10.70;99.90;;;;;;5021904;28;20595;-63
2023/04/14 09:23:09;;;;;;;5.13;2.00;;;10.80;99.90;;;;;;5020704;28;20505;-65
2023/04/14 09:25:38;;;;;;;4.50;2.30;;;10.90;99.90;;;;;;5023652;28;20475;-65
2023/04/14 09:28:08;;;;;;;5.10;2.10;;;11.00;99.90;;;;;;5026597;28;20483;-64
2023/04/14 09:30:36;;;;;;;2.90;2.00;;;11.10;99.90;;;;;;5028693;28;21078;-64
2023/04/14 09:33:05;;;;;;;2.07;1.80;;;11.10;99.90;;;;;;5026169;28;20479;-64
2023/04/14 09:35:44;;;;;;;2.87;1.77;;;11.20;99.90;;;;;;5024996;28;20476;-63
2023/04/14 09:38:12;;;;;;;9.67;2.87;;;11.30;99.90;;;;;;5025873;28;20491;-65
2023/04/14 09:40:43;;;;;;;4.87;2.37;;;11.40;99.90;;;;;;5027219;28;20588;-65
2023/04/14 09:43:26;;;;;;;4.13;2.20;;;11.50;99.90;;;;;;5028824;28;20476;-65
2023/04/14 09:45:55;;;;;;;3.30;1.90;;;11.50;99.90;;;;;;5030328;28;20459;-64
2023/04/14 09:48:24;;;;;;;2.83;2.10;;;11.60;99.90;;;;;;5028129;28;20488;-67
2023/04/14 09:51:00;;;;;;;3.67;2.10;;;11.70;99.90;;;;;;5028303;28;20579;-63
2023/04/14 09:53:29;;;;;;;3.27;2.20;;;11.80;99.90;;;;;;5025510;28;20467;-63
2023/04/14 09:56:01;;;;;;;4.57;2.37;;;11.80;99.90;;;;;;5022411;28;20463;-64
2023/04/14 09:58:32;;;;;;;4.93;2.50;;;11.80;99.90;;;;;;5025153;28;20511;-65
2023/04/14 10:01:03;;;;;;;5.10;1.90;;;11.90;99.90;;;;;;5023973;28;20491;-64
2023/04/14 10:03:37;;;;;;;2.90;1.90;;;12.00;99.90;;;;;;5023725;28;20517;-65
2023/04/14 10:06:08;;;;;;;4.10;2.10;;;12.10;99.90;;;;;;5022888;28;20483;-63
2023/04/14 10:08:41;;;;;;;2.10;1.67;;;12.10;99.90;;;;;;5016352;28;20487;-64
2023/04/14 10:11:18;;;;;;;3.97;1.90;;;12.20;99.90;;;;;;5024656;28;20541;-65
2023/04/14 10:13:49;;;;;;;3.73;1.90;;;12.20;99.90;;;;;;5021171;28;20494;-65
2023/04/14 10:16:17;;;;;;;5.17;2.80;;;12.30;99.90;;;;;;5028239;28;20491;-64
2023/04/14 10:18:45;;;;;;;3.30;1.90;;;12.30;99.90;;;;;;5025556;28;20498;-64
2023/04/14 10:21:16;;;;;;;6.30;2.60;;;12.40;99.90;;;;;;5021606;28;20502;-65
2023/04/14 10:23:45;;;;;;;2.47;2.10;;;12.40;99.90;;;;;;5021865;28;20502;-65
2023/04/14 10:26:14;;;;;;;5.00;2.10;;;12.50;99.90;;;;;;5024916;28;20967;-65
2023/04/14 10:28:44;;;;;;;2.70;2.00;;;12.60;99.90;;;;;;5021314;28;20493;-65
2023/04/14 10:31:19;;;;;;;4.10;2.00;;;12.60;99.90;;;;;;5020680;28;20505;-65
2023/04/14 10:33:47;;;;;;;4.50;1.90;;;12.70;99.90;;;;;;5022575;28;21020;-65
2023/04/14 10:36:23;;;;;;;4.03;1.80;;;12.80;99.90;;;;;;5022315;28;20632;-66
2023/04/14 10:38:58;;;;;;;3.27;1.90;;;12.90;99.90;;;;;;5017926;28;20821;-63
2023/04/14 10:41:27;;;;;;;3.47;1.80;;;13.00;99.90;;;;;;5023369;28;20905;-63
2023/04/14 10:43:55;;;;;;;3.03;1.60;;;13.10;99.90;;;;;;5018394;28;20467;-65
2023/04/14 10:46:25;;;;;;;3.20;1.90;;;13.10;99.90;;;;;;5026345;28;20475;-66
2023/04/14 10:48:54;;;;;;;2.53;2.03;;;13.20;99.90;;;;;;5018904;28;20487;-65
2023/04/14 10:51:34;;;;;;;3.37;1.80;;;13.20;99.90;;;;;;5018459;28;20495;-62
2023/04/14 10:54:03;;;;;;;4.77;1.77;;;13.30;99.90;;;;;;5023327;28;20863;-64
2023/04/14 10:56:31;;;;;;;4.13;1.80;;;13.40;99.90;;;;;;5023618;28;20477;-67
2023/04/14 10:58:59;;;;;;;6.23;1.70;;;13.40;99.90;;;;;;5022501;28;20590;-65
2023/04/14 11:01:31;;;;;;;3.03;1.37;;;13.50;99.90;;;;;;5021988;28;20505;-66
2023/04/14 11:04:17;;;;;;;3.67;1.67;;;13.60;99.90;;;;;;5023063;28;20486;-66
2023/04/14 11:06:50;;;;;;;1.70;1.47;;;13.70;99.90;;;;;;5019993;28;20794;-65
2023/04/14 11:09:26;;;;;;;3.13;1.40;;;13.70;99.90;;;;;;5021702;28;20518;-65
2023/04/14 11:11:56;;;;;;;2.57;1.70;;;13.80;99.90;;;;;;5022851;28;20498;-63
2023/04/14 11:14:27;;;;;;;3.30;1.60;;;13.80;99.90;;;;;;5020663;28;20475;-65
2023/04/14 11:17:00;;;;;;;1.53;1.10;;;13.90;99.90;;;;;;5020609;28;20490;-66
2023/04/14 11:19:32;;;;;;;3.13;1.30;;;13.90;99.90;;;;;;5025009;28;20912;-64
2023/04/14 11:22:00;;;;;;;1.90;1.30;;;14.00;99.90;;;;;;5014431;28;20478;-64
2023/04/14 11:24:28;;;;;;;3.30;1.47;;;14.00;99.90;;;;;;5023232;28;20478;-65
2023/04/14 11:26:57;;;;;;;2.43;1.40;;;14.10;99.90;;;;;;5022751;28;20506;-65
2023/04/14 11:29:25;;;;;;;1.60;1.33;;;14.10;99.90;;;;;;5020737;28;20499;-65
2023/04/14 11:32:02;;;;;;;3.07;1.60;;;14.10;99.90;;;;;;5019073;28;20471;-65
2023/04/14 11:34:31;;;;;;;3.50;2.20;;;14.20;99.90;;;;;;5008701;28;20981;-65
2023/04/14 11:37:02;;;;;;;3.00;1.80;;;14.20;99.90;;;;;;5012940;28;20902;-65
2023/04/14 11:39:30;;;;;;;3.37;1.60;;;14.30;99.90;;;;;;5018440;28;20483;-66
2023/04/14 11:41:59;;;;;;;2.63;2.00;;;14.30;99.90;;;;;;5012859;28;20467;-65
2023/04/14 11:44:27;;;;;;;4.50;1.90;;;14.20;99.90;;;;;;5019694;28;20467;-63
2023/04/14 11:46:55;;;;;;;2.97;2.13;;;14.20;99.90;;;;;;5020707;28;21056;-65
2023/04/14 11:49:35;;;;;;;3.87;2.10;;;14.20;99.90;;;;;;5024590;28;20498;-65
2023/04/14 11:52:12;;;;;;;3.60;1.83;;;14.10;99.90;;;;;;5019095;28;20475;-66
2023/04/14 11:54:40;;;;;;;2.87;2.00;;;14.10;99.90;;;;;;5017593;28;20471;-65
2023/04/14 11:57:11;;;;;;;3.33;2.40;;;14.10;99.90;;;;;;5015331;28;20984;-62
2023/04/14 11:59:43;;;;;;;1.80;1.70;;;14.10;99.90;;;;;;5020210;28;20493;-65
2023/04/14 12:02:18;;;;;;;2.70;2.00;;;14.10;99.90;;;;;;5021298;28;20476;-66
2023/04/14 12:04:50;;;;;;;2.97;2.10;;;14.00;99.90;;;;;;5032048;28;20463;-64
2023/04/14 12:07:20;;;;;;;2.90;2.00;;;13.90;99.90;;;;;;5029154;28;20481;-66
2023/04/14 12:09:50;;;;;;;2.70;2.20;;;13.90;99.90;;;;;;5022077;28;20483;-66
2023/04/14 12:12:19;;;;;;;2.00;1.80;;;13.80;99.90;;;;;;5017929;28;20467;-65
2023/04/14 12:14:49;;;;;;;3.13;2.30;;;13.80;99.90;;;;;;5022013;28;20470;-65
2023/04/14 12:17:18;;;;;;;2.40;2.20;;;13.80;99.90;;;;;;5013745;28;20475;-64
2023/04/14 12:19:47;;;;;;;2.50;2.30;;;13.80;99.90;;;;;;5020902;28;20586;-65
2023/04/14 12:22:23;;;;;;;3.23;2.30;;;13.80;99.90;;;;;;5023154;28;22753;-66
2023/04/14 12:24:51;;;;;;;4.60;2.70;;;13.80;99.90;;;;;;5020147;28;20486;-65
2023/04/14 12:27:21;;;;;;;2.70;2.50;;;13.80;99.90;;;;;;5032247;28;20479;-65
2023/04/14 12:29:49;;;;;;;4.90;2.87;;;13.80;99.90;;;;;;5028966;28;20855;-65
2023/04/14 12:32:17;;;;;;;4.40;2.50;;;13.80;99.90;;;;;;5027060;28;20471;-65
2023/04/14 12:34:57;;;;;;;4.23;2.80;;;13.80;99.90;;;;;;5020972;28;20493;-66
2023/04/14 12:37:27;;;;;;;2.47;2.20;;;13.80;99.90;;;;;;5026039;28;20477;-66
2023/04/14 12:39:58;;;;;;;3.00;2.43;;;13.80;99.90;;;;;;5023133;28;20486;-65
2023/04/14 12:42:26;;;;;;;3.63;2.50;;;13.80;99.90;;;;;;5025035;28;20477;-67
2023/04/14 12:44:59;;;;;;;3.10;2.47;;;13.90;99.90;;;;;;5022615;28;20495;-64
2023/04/14 12:47:28;;;;;;;3.67;2.80;;;14.00;99.90;;;;;;5025841;28;20463;-67
2023/04/14 12:49:57;;;;;;;3.80;2.60;;;14.10;99.90;;;;;;5016964;28;20495;-65
2023/04/14 12:52:37;;;;;;;3.57;2.67;;;14.20;99.90;;;;;;5027700;28;20471;-65
2023/04/14 12:55:07;;;;;;;2.90;2.60;;;14.20;99.90;;;;;;5018253;28;20915;-67
2023/04/14 12:57:35;;;;;;;3.60;2.97;;;14.30;99.90;;;;;;5025661;28;20463;-65
2023/04/14 13:00:04;;;;;;;2.93;2.73;;;14.20;99.90;;;;;;5015330;28;20854;-63
2023/04/14 13:02:34;;;;;;;3.10;2.37;;;14.30;99.90;;;;;;5015894;28;20475;-66
2023/04/14 13:05:03;;;;;;;3.00;2.60;;;14.20;99.90;;;;;;5022957;28;20533;-64
2023/04/14 13:07:34;;;;;;;2.67;2.47;;;14.20;99.90;;;;;;5036112;28;20450;-64